EDT,Max TemperatureF,Mean TemperatureF,Min TemperatureF,Max Dew PointF,MeanDew PointF,Min DewpointF,Max Humidity, Mean Humidity, Min Humidity, Max Sea Level PressureIn, Mean Sea Level PressureIn, Min Sea Level PressureIn, Max VisibilityMiles, Mean VisibilityMiles, Min VisibilityMiles, Max Wind SpeedMPH, Mean Wind SpeedMPH, Max Gust SpeedMPH,PrecipitationIn, CloudCover, Events, WindDirDegrees
2012-8-1,81,71,61,57,53,48,68,54,39,29.92,29.87,29.82,10,10,3,9,4,18,0.57,4,Thunderstorm,172
2012-8-2,84,74,64,59,55,52,73,57,40,29.91,29.87,29.85,10,9,2,9,4,,0.00,4,,157
2012-8-3,84,74,63,63,56,50,66,53,40,30.13,29.99,29.91,10,10,10,9,5,,0.00,1,,172
2012-8-4,90,77,64,63,57,52,68,54,40,30.22,30.18,30.13,10,9,2,10,7,17,1.52,1,Thunderstorm,146
2012-8-5,84,77,70,64,59,55,68,56,44,30.18,30.03,29.86,10,10,3,16,10,22,0.82,3,Thunderstorm,161
2012-8-6,73,65,57,57,51,45,67,54,41,30.02,29.98,29.94,10,10,10,9,5,16,0.00,2,,234
2012-8-7,81,68,54,52,46,41,67,48,28,30.04,30.00,29.95,10,10,10,10,6,,0.00,0,,161
2012-8-8,84,70,55,55,48,45,62,46,29,30.01,29.98,29.94,10,10,10,13,6,,0.00,1,,154
2012-8-9,84,74,63,61,54,48,68,56,43,29.98,29.93,29.85,10,9,2,9,4,17,0.44,4,Thunderstorm,129
2012-8-10,77,71,64,61,56,54,73,64,54,29.91,29.86,29.82,10,8,0,15,5,20,0.01,5,,164
2012-8-11,77,71,64,59,55,54,67,59,50,29.89,29.86,29.83,10,10,10,17,10,22,0.00,3,,143
2012-8-12,,,,,,,,,,,,,,,,,,,,,,
2012-8-13,,,,,,,,,,,,,,,,,,,,,,
2012-8-14,,,,,,,,,,,,,,,,,,,,,,
2012-8-15,79,72,64,55,54,52,63,53,42,29.92,29.89,29.87,10,10,9,7,3,,0.00,5,,265
2012-8-16,77,69,61,55,52,48,72,58,43,29.92,29.89,29.85,10,9,0,9,3,17,0.00,4,Thunderstorm,74
2012-8-17,81,68,55,55,51,45,67,55,42,29.88,29.82,29.75,10,10,9,12,7,17,0.00,3,Thunderstorm,173
2012-8-18,72,63,54,52,46,41,69,52,34,29.96,29.90,29.86,10,10,7,9,5,,0.00,2,,113
2012-8-19,73,61,48,48,41,36,66,49,31,30.03,29.96,29.91,10,10,0,9,6,,0.00,0,,139
2012-8-20,79,65,50,48,43,37,63,46,29,29.96,29.91,29.84,10,10,7,12,5,17,0.00,2,,119
2012-8-21,75,66,57,48,45,41,67,49,31,30.11,30.01,29.93,10,10,7,10,4,,0.00,3,,259
2012-8-22,79,65,50,50,43,37,64,47,29,30.17,30.13,30.09,10,10,0,10,6,,0.00,1,,152
2012-8-23,81,68,55,54,48,43,66,51,35,30.17,30.13,30.09,10,10,10,10,5,,0.00,2,,138
2012-8-24,82,69,55,54,49,45,66,50,33,30.22,30.18,30.15,10,10,6,10,5,,0.00,0,,137
2012-8-25,84,73,61,55,51,46,65,51,36,30.30,30.27,30.22,10,10,5,12,6,23,0.00,1,Thunderstorm,143
2012-8-26,82,71,59,57,52,48,67,52,37,30.34,30.28,30.21,10,10,6,12,5,,0.00,1,,133
2012-8-27,81,69,57,59,52,45,68,54,40,30.21,30.07,29.91,10,10,7,12,5,18,0.18,5,,150
2012-8-28,73,64,55,57,53,43,68,59,49,29.95,29.86,29.79,10,10,4,9,4,24,0.28,6,Thunderstorm,312
2012-8-29,70,58,46,46,40,36,66,50,33,30.03,29.98,29.95,10,10,10,9,4,,0.00,0,,122
2012-8-30,75,61,46,48,43,36,66,51,36,30.06,30.01,29.98,10,10,10,12,6,17,0.00,0,,179
2012-8-31,82,70,57,54,49,43,57,46,35,30.01,29.91,29.81,10,10,10,13,5,20,0.00,2,,205